sensor_id;sensor_type;location;lat;lon;timestamp;P1;durP1;ratioP1;P2;durP2;ratioP2
63114;SDS011;49208;50.874;6.466;2023-06-22T06:03:26;12.60;;;6.50;;
63114;SDS011;49208;50.874;6.466;2023-06-22T06:08:19;9.70;;;6.20;;
63114;SDS011;49208;50.874;6.466;2023-06-22T06:10:44;9.13;;;5.43;;
63114;SDS011;49208;50.874;6.466;2023-06-22T06:13:09;11.52;;;6.68;;
63114;SDS011;49208;50.874;6.466;2023-06-22T06:15:35;9.23;;;5.85;;
63114;SDS011;49208;50.874;6.466;2023-06-22T06:18:00;13.05;;;6.55;;
63114;SDS011;49208;50.874;6.466;2023-06-22T06:20:27;12.70;;;7.10;;
63114;SDS011;49208;50.874;6.466;2023-06-22T06:22:53;17.15;;;7.55;;
63114;SDS011;49208;50.874;6.466;2023-06-22T06:25:18;9.82;;;5.82;;
63114;SDS011;49208;50.874;6.466;2023-06-22T06:27:49;9.90;;;5.65;;
63114;SDS011;49208;50.874;6.466;2023-06-22T06:30:15;10.25;;;5.45;;
63114;SDS011;49208;50.874;6.466;2023-06-22T06:32:42;17.40;;;6.70;;
63114;SDS011;49208;50.874;6.466;2023-06-22T06:35:10;12.95;;;6.88;;
63114;SDS011;49208;50.874;6.466;2023-06-22T06:37:37;13.13;;;7.37;;
63114;SDS011;49208;50.874;6.466;2023-06-22T06:40:07;12.80;;;6.95;;
63114;SDS011;49208;50.874;6.466;2023-06-22T06:42:35;13.70;;;6.85;;
63114;SDS011;49208;50.874;6.466;2023-06-22T06:45:15;8.93;;;5.80;;
63114;SDS011;49208;50.874;6.466;2023-06-22T06:47:42;12.85;;;5.97;;
63114;SDS011;49208;50.874;6.466;2023-06-22T06:50:07;13.75;;;6.18;;
63114;SDS011;49208;50.874;6.466;2023-06-22T06:52:33;9.70;;;6.30;;
63114;SDS011;49208;50.874;6.466;2023-06-22T06:54:59;12.45;;;6.82;;
63114;SDS011;49208;50.874;6.466;2023-06-22T06:57:25;11.88;;;5.28;;
63114;SDS011;49208;50.874;6.466;2023-06-22T06:59:54;10.23;;;6.22;;
63114;SDS011;49208;50.874;6.466;2023-06-22T07:02:21;14.35;;;7.03;;
63114;SDS011;49208;50.874;6.466;2023-06-22T07:04:46;11.77;;;6.35;;
63114;SDS011;49208;50.874;6.466;2023-06-22T07:07:12;11.50;;;5.68;;
63114;SDS011;49208;50.874;6.466;2023-06-22T07:09:37;12.13;;;6.40;;
63114;SDS011;49208;50.874;6.466;2023-06-22T07:12:03;11.23;;;6.22;;
63114;SDS011;49208;50.874;6.466;2023-06-22T07:14:28;8.35;;;5.57;;
63114;SDS011;49208;50.874;6.466;2023-06-22T07:16:54;10.57;;;6.57;;
63114;SDS011;49208;50.874;6.466;2023-06-22T07:19:26;9.10;;;6.83;;
63114;SDS011;49208;50.874;6.466;2023-06-22T07:21:52;11.13;;;6.10;;
63114;SDS011;49208;50.874;6.466;2023-06-22T07:26:45;15.43;;;6.70;;
63114;SDS011;49208;50.874;6.466;2023-06-22T07:29:11;10.73;;;5.95;;
63114;SDS011;49208;50.874;6.466;2023-06-22T07:31:37;14.50;;;6.70;;
63114;SDS011;49208;50.874;6.466;2023-06-22T07:34:02;12.10;;;7.07;;
63114;SDS011;49208;50.874;6.466;2023-06-22T07:36:29;12.10;;;7.78;;
63114;SDS011;49208;50.874;6.466;2023-06-22T07:38:55;14.33;;;7.30;;
63114;SDS011;49208;50.874;6.466;2023-06-22T07:41:20;9.73;;;5.77;;
63114;SDS011;49208;50.874;6.466;2023-06-22T07:43:46;15.97;;;8.93;;
63114;SDS011;49208;50.874;6.466;2023-06-22T07:46:11;18.13;;;7.13;;
63114;SDS011;49208;50.874;6.466;2023-06-22T07:48:37;13.40;;;7.10;;
63114;SDS011;49208;50.874;6.466;2023-06-22T07:51:03;11.73;;;7.70;;
63114;SDS011;49208;50.874;6.466;2023-06-22T07:53:28;15.67;;;7.57;;
63114;SDS011;49208;50.874;6.466;2023-06-22T07:55:54;14.90;;;7.17;;
63114;SDS011;49208;50.874;6.466;2023-06-22T07:58:19;14.73;;;7.87;;
63114;SDS011;49208;50.874;6.466;2023-06-22T08:00:45;11.63;;;6.95;;
63114;SDS011;49208;50.874;6.466;2023-06-22T08:03:11;15.75;;;7.75;;
63114;SDS011;49208;50.874;6.466;2023-06-22T08:05:37;9.80;;;6.13;;
63114;SDS011;49208;50.874;6.466;2023-06-22T08:08:02;16.60;;;8.23;;
63114;SDS011;49208;50.874;6.466;2023-06-22T08:10:27;16.70;;;8.43;;
63114;SDS011;49208;50.874;6.466;2023-06-22T08:12:53;18.63;;;8.13;;
63114;SDS011;49208;50.874;6.466;2023-06-22T08:15:18;12.23;;;7.93;;
63114;SDS011;49208;50.874;6.466;2023-06-22T08:17:44;13.10;;;7.87;;
63114;SDS011;49208;50.874;6.466;2023-06-22T08:22:37;13.60;;;7.70;;
63114;SDS011;49208;50.874;6.466;2023-06-22T08:25:03;13.30;;;8.20;;
63114;SDS011;49208;50.874;6.466;2023-06-22T08:27:29;18.50;;;8.88;;
63114;SDS011;49208;50.874;6.466;2023-06-22T08:29:59;12.88;;;7.78;;
63114;SDS011;49208;50.874;6.466;2023-06-22T08:32:25;13.25;;;7.80;;
63114;SDS011;49208;50.874;6.466;2023-06-22T08:34:55;14.23;;;8.45;;
63114;SDS011;49208;50.874;6.466;2023-06-22T08:37:21;11.35;;;7.30;;
63114;SDS011;49208;50.874;6.466;2023-06-22T08:39:49;15.95;;;7.60;;
63114;SDS011;49208;50.874;6.466;2023-06-22T08:42:15;12.23;;;7.53;;
63114;SDS011;49208;50.874;6.466;2023-06-22T08:44:41;15.57;;;9.57;;
63114;SDS011;49208;50.874;6.466;2023-06-22T08:47:06;19.17;;;9.37;;
63114;SDS011;49208;50.874;6.466;2023-06-22T08:49:32;12.37;;;8.37;;
63114;SDS011;49208;50.874;6.466;2023-06-22T08:51:57;13.30;;;8.73;;
63114;SDS011;49208;50.874;6.466;2023-06-22T08:54:22;12.27;;;8.87;;
63114;SDS011;49208;50.874;6.466;2023-06-22T08:56:48;11.80;;;7.57;;
63114;SDS011;49208;50.874;6.466;2023-06-22T08:59:14;13.40;;;8.40;;
63114;SDS011;49208;50.874;6.466;2023-06-22T09:01:39;15.93;;;8.20;;
63114;SDS011;49208;50.874;6.466;2023-06-22T09:04:04;11.47;;;7.37;;
63114;SDS011;49208;50.874;6.466;2023-06-22T09:06:31;12.73;;;7.63;;
63114;SDS011;49208;50.874;6.466;2023-06-22T09:08:56;10.07;;;7.70;;
63114;SDS011;49208;50.874;6.466;2023-06-22T09:11:24;13.18;;;7.95;;
63114;SDS011;49208;50.874;6.466;2023-06-22T09:13:50;11.27;;;7.80;;
63114;SDS011;49208;50.874;6.466;2023-06-22T09:16:17;10.85;;;8.32;;
63114;SDS011;49208;50.874;6.466;2023-06-22T09:18:42;13.93;;;9.43;;
63114;SDS011;49208;50.874;6.466;2023-06-22T09:21:07;12.43;;;8.43;;
63114;SDS011;49208;50.874;6.466;2023-06-22T09:23:33;12.20;;;8.83;;
63114;SDS011;49208;50.874;6.466;2023-06-22T09:25:58;15.27;;;9.17;;
63114;SDS011;49208;50.874;6.466;2023-06-22T09:28:23;11.50;;;9.67;;
63114;SDS011;49208;50.874;6.466;2023-06-22T09:30:49;14.63;;;9.00;;
63114;SDS011;49208;50.874;6.466;2023-06-22T09:33:14;12.93;;;8.80;;
63114;SDS011;49208;50.874;6.466;2023-06-22T09:35:40;12.03;;;8.87;;
63114;SDS011;49208;50.874;6.466;2023-06-22T09:38:05;12.63;;;8.47;;
63114;SDS011;49208;50.874;6.466;2023-06-22T09:40:30;12.00;;;9.00;;
63114;SDS011;49208;50.874;6.466;2023-06-22T09:43:00;12.32;;;9.98;;
63114;SDS011;49208;50.874;6.466;2023-06-22T09:45:25;11.07;;;8.73;;
63114;SDS011;49208;50.874;6.466;2023-06-22T09:47:51;9.87;;;8.13;;
63114;SDS011;49208;50.874;6.466;2023-06-22T09:50:16;16.53;;;9.90;;
63114;SDS011;49208;50.874;6.466;2023-06-22T09:52:41;15.10;;;9.20;;
63114;SDS011;49208;50.874;6.466;2023-06-22T09:55:09;14.70;;;10.02;;
63114;SDS011;49208;50.874;6.466;2023-06-22T09:57:35;16.30;;;9.03;;
63114;SDS011;49208;50.874;6.466;2023-06-22T10:00:00;16.90;;;9.97;;
63114;SDS011;49208;50.874;6.466;2023-06-22T10:02:25;17.20;;;9.87;;
63114;SDS011;49208;50.874;6.466;2023-06-22T10:04:51;14.70;;;8.73;;
63114;SDS011;49208;50.874;6.466;2023-06-22T10:07:16;13.03;;;9.63;;
63114;SDS011;49208;50.874;6.466;2023-06-22T10:09:41;13.03;;;9.27;;
63114;SDS011;49208;50.874;6.466;2023-06-22T10:12:07;16.20;;;10.83;;
63114;SDS011;49208;50.874;6.466;2023-06-22T10:14:32;11.97;;;8.30;;
63114;SDS011;49208;50.874;6.466;2023-06-22T10:16:58;19.40;;;11.90;;
63114;SDS011;49208;50.874;6.466;2023-06-22T10:19:23;24.67;;;12.30;;
63114;SDS011;49208;50.874;6.466;2023-06-22T10:21:48;17.52;;;13.05;;
63114;SDS011;49208;50.874;6.466;2023-06-22T10:24:14;17.97;;;13.00;;
63114;SDS011;49208;50.874;6.466;2023-06-22T10:26:39;15.18;;;10.20;;
63114;SDS011;49208;50.874;6.466;2023-06-22T10:29:05;13.77;;;10.90;;
63114;SDS011;49208;50.874;6.466;2023-06-22T10:31:30;20.77;;;13.50;;
63114;SDS011;49208;50.874;6.466;2023-06-22T10:33:57;19.52;;;12.45;;
63114;SDS011;49208;50.874;6.466;2023-06-22T10:36:22;17.73;;;12.02;;
63114;SDS011;49208;50.874;6.466;2023-06-22T10:38:48;20.17;;;12.82;;
63114;SDS011;49208;50.874;6.466;2023-06-22T10:41:14;16.55;;;12.65;;
63114;SDS011;49208;50.874;6.466;2023-06-22T10:43:39;16.00;;;13.68;;
63114;SDS011;49208;50.874;6.466;2023-06-22T10:46:06;19.40;;;14.00;;
63114;SDS011;49208;50.874;6.466;2023-06-22T10:48:31;14.30;;;10.93;;
63114;SDS011;49208;50.874;6.466;2023-06-22T10:50:57;17.17;;;11.10;;
63114;SDS011;49208;50.874;6.466;2023-06-22T10:53:22;17.80;;;11.95;;
63114;SDS011;49208;50.874;6.466;2023-06-22T10:55:47;23.15;;;15.43;;
63114;SDS011;49208;50.874;6.466;2023-06-22T10:58:13;19.00;;;13.60;;
63114;SDS011;49208;50.874;6.466;2023-06-22T11:00:38;18.95;;;13.70;;
63114;SDS011;49208;50.874;6.466;2023-06-22T11:03:04;22.60;;;15.90;;
63114;SDS011;49208;50.874;6.466;2023-06-22T11:05:29;22.73;;;15.65;;
63114;SDS011;49208;50.874;6.466;2023-06-22T11:07:54;23.17;;;15.60;;
63114;SDS011;49208;50.874;6.466;2023-06-22T11:10:20;18.42;;;14.65;;
63114;SDS011;49208;50.874;6.466;2023-06-22T11:12:45;20.10;;;15.40;;
63114;SDS011;49208;50.874;6.466;2023-06-22T11:15:10;24.42;;;17.00;;
63114;SDS011;49208;50.874;6.466;2023-06-22T11:17:36;22.58;;;14.93;;
63114;SDS011;49208;50.874;6.466;2023-06-22T11:20:01;21.52;;;15.15;;
63114;SDS011;49208;50.874;6.466;2023-06-22T11:22:30;21.52;;;14.98;;
63114;SDS011;49208;50.874;6.466;2023-06-22T11:24:58;20.23;;;14.75;;
63114;SDS011;49208;50.874;6.466;2023-06-22T11:27:23;19.50;;;13.90;;
63114;SDS011;49208;50.874;6.466;2023-06-22T11:29:49;19.17;;;15.32;;
63114;SDS011;49208;50.874;6.466;2023-06-22T11:32:14;21.48;;;16.02;;
63114;SDS011;49208;50.874;6.466;2023-06-22T11:34:40;19.02;;;14.05;;
63114;SDS011;49208;50.874;6.466;2023-06-22T11:37:05;19.08;;;13.02;;
63114;SDS011;49208;50.874;6.466;2023-06-22T11:39:31;18.20;;;13.60;;
63114;SDS011;49208;50.874;6.466;2023-06-22T11:41:56;18.07;;;12.50;;
63114;SDS011;49208;50.874;6.466;2023-06-22T11:44:22;15.98;;;12.15;;
63114;SDS011;49208;50.874;6.466;2023-06-22T11:46:47;19.05;;;13.27;;
63114;SDS011;49208;50.874;6.466;2023-06-22T11:49:13;15.93;;;10.53;;
63114;SDS011;49208;50.874;6.466;2023-06-22T11:51:38;15.27;;;11.88;;
63114;SDS011;49208;50.874;6.466;2023-06-22T11:54:04;16.90;;;12.97;;
63114;SDS011;49208;50.874;6.466;2023-06-22T11:56:29;14.98;;;11.60;;
63114;SDS011;49208;50.874;6.466;2023-06-22T11:58:55;15.90;;;11.37;;
63114;SDS011;49208;50.874;6.466;2023-06-22T12:01:20;14.35;;;10.27;;
63114;SDS011;49208;50.874;6.466;2023-06-22T12:03:46;17.65;;;12.63;;
63114;SDS011;49208;50.874;6.466;2023-06-22T12:06:11;15.93;;;10.35;;
63114;SDS011;49208;50.874;6.466;2023-06-22T12:08:37;17.03;;;11.87;;
63114;SDS011;49208;50.874;6.466;2023-06-22T12:11:02;18.47;;;13.20;;
63114;SDS011;49208;50.874;6.466;2023-06-22T12:13:27;14.68;;;11.60;;
63114;SDS011;49208;50.874;6.466;2023-06-22T12:15:53;15.40;;;11.68;;
63114;SDS011;49208;50.874;6.466;2023-06-22T12:18:18;17.47;;;10.83;;
63114;SDS011;49208;50.874;6.466;2023-06-22T12:20:46;15.60;;;11.70;;
63114;SDS011;49208;50.874;6.466;2023-06-22T12:23:12;16.73;;;11.07;;
63114;SDS011;49208;50.874;6.466;2023-06-22T12:25:37;14.77;;;10.30;;
63114;SDS011;49208;50.874;6.466;2023-06-22T12:28:03;14.33;;;11.57;;
63114;SDS011;49208;50.874;6.466;2023-06-22T12:30:29;16.02;;;12.13;;
63114;SDS011;49208;50.874;6.466;2023-06-22T12:32:55;17.50;;;11.95;;
63114;SDS011;49208;50.874;6.466;2023-06-22T12:35:21;16.25;;;11.65;;
63114;SDS011;49208;50.874;6.466;2023-06-22T12:37:46;17.80;;;11.95;;
63114;SDS011;49208;50.874;6.466;2023-06-22T12:40:12;15.95;;;10.77;;
63114;SDS011;49208;50.874;6.466;2023-06-22T12:42:37;18.00;;;12.63;;
63114;SDS011;49208;50.874;6.466;2023-06-22T12:45:03;18.08;;;11.45;;
63114;SDS011;49208;50.874;6.466;2023-06-22T12:47:29;17.50;;;12.87;;
63114;SDS011;49208;50.874;6.466;2023-06-22T12:49:54;17.05;;;12.40;;
63114;SDS011;49208;50.874;6.466;2023-06-22T12:52:20;15.85;;;11.43;;
63114;SDS011;49208;50.874;6.466;2023-06-22T12:54:45;20.77;;;13.50;;
63114;SDS011;49208;50.874;6.466;2023-06-22T12:57:10;17.80;;;13.40;;
63114;SDS011;49208;50.874;6.466;2023-06-22T12:59:36;19.33;;;14.27;;
63114;SDS011;49208;50.874;6.466;2023-06-22T13:02:01;17.27;;;12.18;;
63114;SDS011;49208;50.874;6.466;2023-06-22T13:04:26;19.15;;;13.30;;
63114;SDS011;49208;50.874;6.466;2023-06-22T13:06:52;16.35;;;12.50;;
63114;SDS011;49208;50.874;6.466;2023-06-22T13:09:17;15.50;;;12.33;;
63114;SDS011;49208;50.874;6.466;2023-06-22T13:11:44;18.35;;;14.07;;
63114;SDS011;49208;50.874;6.466;2023-06-22T13:14:09;17.23;;;13.90;;
63114;SDS011;49208;50.874;6.466;2023-06-22T13:16:34;18.57;;;13.83;;
63114;SDS011;49208;50.874;6.466;2023-06-22T13:19:00;19.67;;;14.75;;
63114;SDS011;49208;50.874;6.466;2023-06-22T13:21:25;21.63;;;15.50;;
63114;SDS011;49208;50.874;6.466;2023-06-22T13:23:51;17.05;;;13.20;;
63114;SDS011;49208;50.874;6.466;2023-06-22T13:26:16;21.30;;;14.38;;
63114;SDS011;49208;50.874;6.466;2023-06-22T13:28:41;20.15;;;14.02;;
63114;SDS011;49208;50.874;6.466;2023-06-22T13:31:07;22.38;;;16.92;;
63114;SDS011;49208;50.874;6.466;2023-06-22T13:33:32;20.25;;;16.45;;
63114;SDS011;49208;50.874;6.466;2023-06-22T13:35:57;21.70;;;16.63;;
63114;SDS011;49208;50.874;6.466;2023-06-22T13:38:23;20.02;;;16.60;;
63114;SDS011;49208;50.874;6.466;2023-06-22T13:40:48;23.40;;;16.70;;
63114;SDS011;49208;50.874;6.466;2023-06-22T13:43:14;20.90;;;16.05;;
63114;SDS011;49208;50.874;6.466;2023-06-22T13:45:41;19.50;;;15.65;;
63114;SDS011;49208;50.874;6.466;2023-06-22T13:48:06;19.10;;;15.23;;
63114;SDS011;49208;50.874;6.466;2023-06-22T13:50:32;19.25;;;13.40;;
63114;SDS011;49208;50.874;6.466;2023-06-22T13:52:57;19.80;;;15.05;;
63114;SDS011;49208;50.874;6.466;2023-06-22T13:55:23;20.47;;;15.97;;
63114;SDS011;49208;50.874;6.466;2023-06-22T13:57:48;17.52;;;13.00;;
63114;SDS011;49208;50.874;6.466;2023-06-22T14:00:14;14.77;;;12.95;;
63114;SDS011;49208;50.874;6.466;2023-06-22T14:02:40;20.17;;;13.82;;
63114;SDS011;49208;50.874;6.466;2023-06-22T14:05:06;19.70;;;13.52;;
63114;SDS011;49208;50.874;6.466;2023-06-22T14:07:32;15.40;;;12.63;;
63114;SDS011;49208;50.874;6.466;2023-06-22T14:09:58;16.77;;;11.77;;
63114;SDS011;49208;50.874;6.466;2023-06-22T14:12:23;15.38;;;11.95;;
63114;SDS011;49208;50.874;6.466;2023-06-22T14:14:49;16.85;;;12.30;;
63114;SDS011;49208;50.874;6.466;2023-06-22T14:17:14;16.35;;;12.88;;
63114;SDS011;49208;50.874;6.466;2023-06-22T14:19:40;18.17;;;12.55;;
63114;SDS011;49208;50.874;6.466;2023-06-22T14:22:05;20.67;;;14.13;;
63114;SDS011;49208;50.874;6.466;2023-06-22T14:24:31;18.52;;;14.70;;
63114;SDS011;49208;50.874;6.466;2023-06-22T14:26:56;19.83;;;14.88;;
63114;SDS011;49208;50.874;6.466;2023-06-22T14:29:22;20.45;;;14.77;;
63114;SDS011;49208;50.874;6.466;2023-06-22T14:31:47;20.25;;;15.02;;
63114;SDS011;49208;50.874;6.466;2023-06-22T14:34:13;21.17;;;17.17;;
63114;SDS011;49208;50.874;6.466;2023-06-22T14:36:39;25.17;;;18.83;;
63114;SDS011;49208;50.874;6.466;2023-06-22T14:39:05;21.35;;;16.85;;
63114;SDS011;49208;50.874;6.466;2023-06-22T14:41:31;23.50;;;17.50;;
63114;SDS011;49208;50.874;6.466;2023-06-22T14:43:56;19.10;;;16.48;;
63114;SDS011;49208;50.874;6.466;2023-06-22T14:46:22;22.77;;;17.77;;
63114;SDS011;49208;50.874;6.466;2023-06-22T14:48:47;20.77;;;16.70;;
63114;SDS011;49208;50.874;6.466;2023-06-22T14:51:13;24.27;;;19.75;;
63114;SDS011;49208;50.874;6.466;2023-06-22T14:53:39;27.40;;;21.48;;
63114;SDS011;49208;50.874;6.466;2023-06-22T14:56:04;22.55;;;17.77;;
63114;SDS011;49208;50.874;6.466;2023-06-22T14:58:30;24.92;;;18.45;;
63114;SDS011;49208;50.874;6.466;2023-06-22T15:01:00;30.00;;;21.33;;
63114;SDS011;49208;50.874;6.466;2023-06-22T15:03:26;26.58;;;21.23;;
63114;SDS011;49208;50.874;6.466;2023-06-22T15:08:19;22.08;;;16.27;;
63114;SDS011;49208;50.874;6.466;2023-06-22T15:10:45;26.67;;;20.35;;
63114;SDS011;49208;50.874;6.466;2023-06-22T15:13:10;31.75;;;23.80;;
63114;SDS011;49208;50.874;6.466;2023-06-22T15:15:36;33.75;;;24.17;;
63114;SDS011;49208;50.874;6.466;2023-06-22T15:18:01;32.88;;;24.77;;
63114;SDS011;49208;50.874;6.466;2023-06-22T15:20:27;30.85;;;23.75;;
63114;SDS011;49208;50.874;6.466;2023-06-22T15:22:52;31.33;;;24.63;;
63114;SDS011;49208;50.874;6.466;2023-06-22T15:25:18;32.85;;;24.60;;
63114;SDS011;49208;50.874;6.466;2023-06-22T15:27:43;29.50;;;22.85;;
63114;SDS011;49208;50.874;6.466;2023-06-22T15:30:09;31.52;;;25.13;;
63114;SDS011;49208;50.874;6.466;2023-06-22T15:32:34;34.55;;;23.50;;
63114;SDS011;49208;50.874;6.466;2023-06-22T15:35:00;32.00;;;23.92;;
63114;SDS011;49208;50.874;6.466;2023-06-22T15:37:25;31.83;;;23.67;;
63114;SDS011;49208;50.874;6.466;2023-06-22T15:39:50;31.77;;;22.52;;
63114;SDS011;49208;50.874;6.466;2023-06-22T15:42:18;31.75;;;23.13;;
63114;SDS011;49208;50.874;6.466;2023-06-22T15:44:43;31.88;;;22.92;;
63114;SDS011;49208;50.874;6.466;2023-06-22T15:47:08;31.77;;;21.95;;
63114;SDS011;49208;50.874;6.466;2023-06-22T15:49:34;28.35;;;20.90;;
63114;SDS011;49208;50.874;6.466;2023-06-22T15:51:59;27.30;;;20.00;;
63114;SDS011;49208;50.874;6.466;2023-06-22T15:54:25;31.55;;;20.40;;
63114;SDS011;49208;50.874;6.466;2023-06-22T15:56:50;32.70;;;22.10;;
63114;SDS011;49208;50.874;6.466;2023-06-22T15:59:16;32.00;;;22.77;;
63114;SDS011;49208;50.874;6.466;2023-06-22T16:01:42;34.95;;;25.35;;
63114;SDS011;49208;50.874;6.466;2023-06-22T16:04:07;30.52;;;20.42;;
63114;SDS011;49208;50.874;6.466;2023-06-22T16:06:33;12.70;;;8.93;;
63114;SDS011;49208;50.874;6.466;2023-06-22T16:08:58;10.18;;;5.78;;
63114;SDS011;49208;50.874;6.466;2023-06-22T16:11:24;10.60;;;6.75;;
63114;SDS011;49208;50.874;6.466;2023-06-22T16:13:49;7.55;;;5.30;;
63114;SDS011;49208;50.874;6.466;2023-06-22T16:16:14;7.53;;;4.15;;
63114;SDS011;49208;50.874;6.466;2023-06-22T16:18:41;6.68;;;4.47;;
63114;SDS011;49208;50.874;6.466;2023-06-22T16:21:07;8.70;;;4.47;;
63114;SDS011;49208;50.874;6.466;2023-06-22T16:23:32;9.63;;;4.70;;
63114;SDS011;49208;50.874;6.466;2023-06-22T16:25:58;6.50;;;4.30;;
63114;SDS011;49208;50.874;6.466;2023-06-22T16:28:23;13.82;;;7.80;;
63114;SDS011;49208;50.874;6.466;2023-06-22T16:30:48;12.93;;;9.05;;
63114;SDS011;49208;50.874;6.466;2023-06-22T16:33:14;11.32;;;8.00;;
63114;SDS011;49208;50.874;6.466;2023-06-22T16:35:40;13.07;;;9.68;;
63114;SDS011;49208;50.874;6.466;2023-06-22T16:38:06;20.40;;;15.23;;
63114;SDS011;49208;50.874;6.466;2023-06-22T16:40:31;20.45;;;15.85;;
63114;SDS011;49208;50.874;6.466;2023-06-22T16:42:57;20.88;;;17.08;;
63114;SDS011;49208;50.874;6.466;2023-06-22T16:45:23;20.73;;;15.30;;
63114;SDS011;49208;50.874;6.466;2023-06-22T16:47:49;15.15;;;12.13;;
63114;SDS011;49208;50.874;6.466;2023-06-22T16:50:16;14.80;;;11.35;;
63114;SDS011;49208;50.874;6.466;2023-06-22T16:52:42;16.23;;;12.95;;
63114;SDS011;49208;50.874;6.466;2023-06-22T16:55:09;16.73;;;14.45;;
63114;SDS011;49208;50.874;6.466;2023-06-22T16:57:35;20.98;;;17.05;;
63114;SDS011;49208;50.874;6.466;2023-06-22T17:00:01;22.60;;;17.40;;
63114;SDS011;49208;50.874;6.466;2023-06-22T17:02:27;18.67;;;14.65;;
63114;SDS011;49208;50.874;6.466;2023-06-22T17:04:57;20.35;;;16.75;;
63114;SDS011;49208;50.874;6.466;2023-06-22T17:07:24;23.60;;;19.60;;
63114;SDS011;49208;50.874;6.466;2023-06-22T17:09:51;23.55;;;19.65;;
63114;SDS011;49208;50.874;6.466;2023-06-22T17:12:17;29.17;;;21.67;;
63114;SDS011;49208;50.874;6.466;2023-06-22T17:14:48;25.35;;;21.25;;
63114;SDS011;49208;50.874;6.466;2023-06-22T17:17:16;24.88;;;20.67;;
63114;SDS011;49208;50.874;6.466;2023-06-22T17:19:43;27.23;;;21.73;;
63114;SDS011;49208;50.874;6.466;2023-06-22T17:22:10;29.38;;;23.45;;
63114;SDS011;49208;50.874;6.466;2023-06-22T17:24:36;26.30;;;21.58;;
63114;SDS011;49208;50.874;6.466;2023-06-22T17:27:02;27.42;;;23.52;;
63114;SDS011;49208;50.874;6.466;2023-06-22T17:29:29;25.83;;;22.15;;
63114;SDS011;49208;50.874;6.466;2023-06-22T17:31:58;28.15;;;21.42;;
63114;SDS011;49208;50.874;6.466;2023-06-22T17:34:26;27.23;;;21.92;;
63114;SDS011;49208;50.874;6.466;2023-06-22T17:36:56;28.70;;;23.13;;
63114;SDS011;49208;50.874;6.466;2023-06-22T17:39:23;31.42;;;24.67;;
63114;SDS011;49208;50.874;6.466;2023-06-22T17:41:51;26.70;;;22.33;;
63114;SDS011;49208;50.874;6.466;2023-06-22T17:44:21;29.38;;;23.50;;
63114;SDS011;49208;50.874;6.466;2023-06-22T17:46:51;28.38;;;23.98;;
63114;SDS011;49208;50.874;6.466;2023-06-22T17:49:18;25.80;;;21.73;;
63114;SDS011;49208;50.874;6.466;2023-06-22T17:51:43;26.65;;;22.75;;
63114;SDS011;49208;50.874;6.466;2023-06-22T17:54:10;25.50;;;21.03;;
63114;SDS011;49208;50.874;6.466;2023-06-22T17:56:36;22.70;;;19.52;;
63114;SDS011;49208;50.874;6.466;2023-06-22T17:59:02;22.95;;;18.55;;
63114;SDS011;49208;50.874;6.466;2023-06-22T18:03:53;18.05;;;15.38;;
63114;SDS011;49208;50.874;6.466;2023-06-22T18:06:18;17.30;;;14.18;;
63114;SDS011;49208;50.874;6.466;2023-06-22T18:08:45;13.55;;;10.52;;
63114;SDS011;49208;50.874;6.466;2023-06-22T18:11:13;10.68;;;8.82;;
63114;SDS011;49208;50.874;6.466;2023-06-22T18:13:39;12.57;;;9.10;;
63114;SDS011;49208;50.874;6.466;2023-06-22T18:16:06;10.90;;;8.93;;
63114;SDS011;49208;50.874;6.466;2023-06-22T18:18:32;11.15;;;9.05;;
63114;SDS011;49208;50.874;6.466;2023-06-22T18:21:00;9.02;;;6.65;;
63114;SDS011;49208;50.874;6.466;2023-06-22T18:23:26;9.32;;;5.35;;
63114;SDS011;49208;50.874;6.466;2023-06-22T18:26:01;10.32;;;6.82;;
63114;SDS011;49208;50.874;6.466;2023-06-22T18:28:28;8.63;;;6.13;;
63114;SDS011;49208;50.874;6.466;2023-06-22T18:30:55;10.90;;;7.20;;
63114;SDS011;49208;50.874;6.466;2023-06-22T18:33:21;9.25;;;6.60;;
63114;SDS011;49208;50.874;6.466;2023-06-22T18:35:46;8.63;;;5.85;;
63114;SDS011;49208;50.874;6.466;2023-06-22T18:38:16;7.53;;;5.45;;
63114;SDS011;49208;50.874;6.466;2023-06-22T18:40:51;9.80;;;5.60;;
63114;SDS011;49208;50.874;6.466;2023-06-22T18:43:22;7.97;;;4.75;;
63114;SDS011;49208;50.874;6.466;2023-06-22T18:45:48;6.85;;;4.50;;
63114;SDS011;49208;50.874;6.466;2023-06-22T18:48:14;8.50;;;4.25;;
63114;SDS011;49208;50.874;6.466;2023-06-22T18:50:48;6.20;;;4.35;;
63114;SDS011;49208;50.874;6.466;2023-06-22T18:53:18;6.30;;;4.38;;
63114;SDS011;49208;50.874;6.466;2023-06-22T18:56:13;7.32;;;5.22;;
63114;SDS011;49208;50.874;6.466;2023-06-22T18:58:40;6.93;;;5.25;;
63114;SDS011;49208;50.874;6.466;2023-06-22T19:01:18;8.02;;;6.28;;
63114;SDS011;49208;50.874;6.466;2023-06-22T19:03:51;7.53;;;5.28;;
63114;SDS011;49208;50.874;6.466;2023-06-22T19:06:53;8.63;;;6.45;;
63114;SDS011;49208;50.874;6.466;2023-06-22T19:09:15;10.85;;;7.25;;
63114;SDS011;49208;50.874;6.466;2023-06-22T19:11:43;9.10;;;7.15;;
63114;SDS011;49208;50.874;6.466;2023-06-22T19:14:09;10.98;;;7.75;;
63114;SDS011;49208;50.874;6.466;2023-06-22T19:16:34;11.05;;;8.50;;
63114;SDS011;49208;50.874;6.466;2023-06-22T19:19:11;12.60;;;9.73;;
63114;SDS011;49208;50.874;6.466;2023-06-22T19:21:37;12.40;;;9.48;;
63114;SDS011;49208;50.874;6.466;2023-06-22T19:24:03;12.90;;;9.30;;
63114;SDS011;49208;50.874;6.466;2023-06-22T19:26:29;12.80;;;8.63;;
63114;SDS011;49208;50.874;6.466;2023-06-22T19:28:55;11.70;;;8.25;;
63114;SDS011;49208;50.874;6.466;2023-06-22T19:31:27;10.10;;;7.32;;
63114;SDS011;49208;50.874;6.466;2023-06-22T19:33:53;10.93;;;7.55;;
63114;SDS011;49208;50.874;6.466;2023-06-22T19:36:25;11.88;;;6.82;;
63114;SDS011;49208;50.874;6.466;2023-06-22T19:38:55;11.75;;;7.30;;
63114;SDS011;49208;50.874;6.466;2023-06-22T19:41:22;10.38;;;7.07;;
63114;SDS011;49208;50.874;6.466;2023-06-22T19:43:48;10.10;;;6.93;;
63114;SDS011;49208;50.874;6.466;2023-06-22T19:46:13;10.70;;;7.65;;
63114;SDS011;49208;50.874;6.466;2023-06-22T19:48:39;14.52;;;8.57;;
63114;SDS011;49208;50.874;6.466;2023-06-22T19:51:07;12.30;;;8.48;;
63114;SDS011;49208;50.874;6.466;2023-06-22T19:53:32;12.75;;;8.90;;
63114;SDS011;49208;50.874;6.466;2023-06-22T19:55:58;13.80;;;9.88;;
63114;SDS011;49208;50.874;6.466;2023-06-22T19:58:23;14.35;;;10.15;;
63114;SDS011;49208;50.874;6.466;2023-06-22T20:00:49;15.88;;;10.65;;
63114;SDS011;49208;50.874;6.466;2023-06-22T20:06:12;16.67;;;12.02;;
63114;SDS011;49208;50.874;6.466;2023-06-22T20:08:42;18.02;;;12.82;;
63114;SDS011;49208;50.874;6.466;2023-06-22T20:11:08;16.88;;;13.13;;
63114;SDS011;49208;50.874;6.466;2023-06-22T20:13:34;17.75;;;12.82;;
63114;SDS011;49208;50.874;6.466;2023-06-22T20:16:07;20.15;;;13.93;;
63114;SDS011;49208;50.874;6.466;2023-06-22T20:18:33;20.42;;;14.93;;
63114;SDS011;49208;50.874;6.466;2023-06-22T20:20:58;22.75;;;15.48;;
63114;SDS011;49208;50.874;6.466;2023-06-22T20:23:24;19.55;;;15.23;;
63114;SDS011;49208;50.874;6.466;2023-06-22T20:25:49;20.05;;;14.48;;
63114;SDS011;49208;50.874;6.466;2023-06-22T20:33:25;20.10;;;14.95;;
63114;SDS011;49208;50.874;6.466;2023-06-22T20:35:51;19.63;;;14.55;;
63114;SDS011;49208;50.874;6.466;2023-06-22T20:38:17;20.35;;;13.60;;
63114;SDS011;49208;50.874;6.466;2023-06-22T20:40:42;19.83;;;13.85;;
63114;SDS011;49208;50.874;6.466;2023-06-22T20:43:08;22.00;;;16.10;;
63114;SDS011;49208;50.874;6.466;2023-06-22T20:45:34;22.35;;;15.80;;